createdAt,value
2023-05-23T00:00:01.435Z,15.07
2023-05-23T00:02:29.384Z,14.23
2023-05-23T00:04:58.717Z,14.07
2023-05-23T00:07:26.715Z,14.02
2023-05-23T00:09:54.076Z,13.60
2023-05-23T00:12:22.589Z,14.15
2023-05-23T00:14:50.655Z,13.45
2023-05-23T00:17:17.942Z,13.73
2023-05-23T00:19:45.860Z,13.48
2023-05-23T00:22:13.529Z,14.27
2023-05-23T00:24:40.771Z,13.20
2023-05-23T00:27:07.996Z,13.52
2023-05-23T00:29:35.334Z,13.60
2023-05-23T00:32:02.608Z,13.45
2023-05-23T00:34:29.892Z,13.68
2023-05-23T00:36:58.350Z,13.55
2023-05-23T00:39:25.792Z,14.25
2023-05-23T00:41:53.435Z,13.80
2023-05-23T00:44:22.048Z,12.98
2023-05-23T00:46:56.592Z,12.95
2023-05-23T00:49:28.331Z,13.35
2023-05-23T00:51:56.116Z,13.73
2023-05-23T00:54:31.317Z,12.85
2023-05-23T00:56:59.105Z,13.43
2023-05-23T00:59:27.362Z,13.93
2023-05-23T01:01:57.168Z,13.10
2023-05-23T01:04:27.222Z,13.00
2023-05-23T01:06:55.579Z,13.70
2023-05-23T01:09:25.506Z,13.32
2023-05-23T01:11:58.682Z,14.05
2023-05-23T01:14:40.595Z,13.45
2023-05-23T01:17:42.408Z,13.77
2023-05-23T01:20:17.259Z,13.60
2023-05-23T01:23:02.542Z,13.65
2023-05-23T01:25:49.824Z,14.15
2023-05-23T01:28:20.143Z,13.45
2023-05-23T01:30:52.061Z,14.07
2023-05-23T01:33:22.809Z,14.05
2023-05-23T01:35:50.545Z,12.90
2023-05-23T01:38:18.006Z,13.68
2023-05-23T01:40:45.344Z,13.32
2023-05-23T01:43:12.970Z,13.68
2023-05-23T01:45:40.756Z,13.13
2023-05-23T01:48:09.602Z,13.77
2023-05-23T01:50:37.445Z,14.00
2023-05-23T01:53:05.724Z,14.63
2023-05-23T01:55:33.491Z,13.20
2023-05-23T01:58:02.039Z,13.77
2023-05-23T02:00:30.223Z,12.93
2023-05-23T02:02:58.510Z,13.25
2023-05-23T02:05:26.116Z,13.48
2023-05-23T02:07:53.589Z,12.90
2023-05-23T02:10:21.218Z,13.93
2023-05-23T02:12:48.561Z,13.63
2023-05-23T02:15:17.538Z,13.77
2023-05-23T02:17:44.977Z,13.25
2023-05-23T02:20:12.451Z,12.52
2023-05-23T02:22:39.838Z,13.07
2023-05-23T02:25:08.020Z,13.07
2023-05-23T02:27:35.452Z,14.73
2023-05-23T02:30:02.832Z,14.25
2023-05-23T02:32:32.444Z,14.00
2023-05-23T02:34:59.811Z,14.20
2023-05-23T02:37:27.104Z,14.02
2023-05-23T02:39:54.721Z,14.13
2023-05-23T02:42:22.533Z,13.38
2023-05-23T02:44:51.037Z,14.07
2023-05-23T02:47:19.071Z,13.88
2023-05-23T02:49:46.406Z,14.00
2023-05-23T02:52:14.398Z,14.05
2023-05-23T02:54:41.716Z,14.38
2023-05-23T02:57:09.148Z,14.38
2023-05-23T02:59:39.227Z,14.50
2023-05-23T03:02:06.578Z,14.10
2023-05-23T03:04:33.937Z,13.15
2023-05-23T03:07:01.423Z,15.32
2023-05-23T03:09:28.966Z,15.07
2023-05-23T03:11:56.706Z,14.18
2023-05-23T03:14:24.316Z,14.38
2023-05-23T03:16:52.925Z,14.57
2023-05-23T03:19:20.451Z,14.70
2023-05-23T03:21:48.008Z,13.30
2023-05-23T03:24:16.038Z,14.45
2023-05-23T03:26:45.087Z,15.43
2023-05-23T03:29:13.006Z,14.73
2023-05-23T03:31:40.537Z,14.85
2023-05-23T03:34:08.689Z,14.40
2023-05-23T03:36:39.637Z,14.10
2023-05-23T03:39:07.398Z,15.25
2023-05-23T03:41:35.327Z,13.52
2023-05-23T03:44:03.859Z,14.57
2023-05-23T03:46:32.726Z,14.77
2023-05-23T03:49:00.486Z,14.98
2023-05-23T03:51:28.453Z,14.82
2023-05-23T03:53:56.060Z,14.23
2023-05-23T03:56:23.641Z,14.95
2023-05-23T03:58:51.139Z,14.40
2023-05-23T04:01:18.660Z,14.23
2023-05-23T04:03:48.561Z,15.02
2023-05-23T04:06:18.406Z,14.52
2023-05-23T04:08:47.163Z,14.45
2023-05-23T04:11:14.837Z,14.40
2023-05-23T04:13:43.183Z,14.15
2023-05-23T04:16:11.748Z,14.30
2023-05-23T04:18:39.508Z,13.30
2023-05-23T04:21:08.602Z,13.90
2023-05-23T04:23:40.483Z,14.27
2023-05-23T04:26:08.128Z,14.27
2023-05-23T04:28:40.949Z,14.35
2023-05-23T04:31:08.805Z,13.88
2023-05-23T04:33:37.664Z,14.25
2023-05-23T04:36:09.272Z,13.43
2023-05-23T04:38:41.246Z,13.93
2023-05-23T04:41:12.122Z,14.82
2023-05-23T04:44:10.303Z,13.27
2023-05-23T04:46:42.670Z,14.60
2023-05-23T04:49:14.591Z,13.57
2023-05-23T04:51:42.322Z,14.27
2023-05-23T04:54:16.775Z,13.73
2023-05-23T04:56:44.318Z,14.18
2023-05-23T04:59:11.651Z,13.38
2023-05-23T05:01:41.991Z,13.73
2023-05-23T05:04:11.395Z,14.60
2023-05-23T05:06:41.561Z,13.77
2023-05-23T05:09:09.977Z,14.05
2023-05-23T05:11:37.298Z,14.80
2023-05-23T05:14:04.718Z,14.02
2023-05-23T05:16:32.099Z,13.30
2023-05-23T05:19:00.969Z,13.85
2023-05-23T05:21:28.429Z,14.50
2023-05-23T05:23:55.882Z,14.05
2023-05-23T05:26:23.523Z,13.88
2023-05-23T05:28:51.825Z,14.00
2023-05-23T05:31:19.901Z,13.32
2023-05-23T05:33:47.881Z,13.00
2023-05-23T05:36:16.956Z,13.65
2023-05-23T05:38:45.945Z,14.18
2023-05-23T05:41:13.743Z,14.30
2023-05-23T05:43:46.619Z,14.43
2023-05-23T05:46:15.150Z,14.32
2023-05-23T05:48:42.944Z,14.52
2023-05-23T05:51:12.719Z,14.30
2023-05-23T05:53:41.574Z,13.88
2023-05-23T05:56:09.511Z,14.27
2023-05-23T05:58:38.670Z,13.30
2023-05-23T06:01:08.577Z,14.13
2023-05-23T06:03:36.246Z,13.88
2023-05-23T06:06:03.881Z,13.63
2023-05-23T06:08:31.207Z,13.45
2023-05-23T06:10:58.590Z,13.00
2023-05-23T06:13:26.976Z,14.43
2023-05-23T06:15:55.073Z,13.30
2023-05-23T06:18:23.375Z,14.65
2023-05-23T06:20:51.826Z,13.18
2023-05-23T06:23:21.325Z,13.43
2023-05-23T06:25:49.032Z,14.27
2023-05-23T06:28:16.517Z,14.10
2023-05-23T06:30:46.078Z,13.02
2023-05-23T06:33:13.853Z,13.95
2023-05-23T06:35:43.267Z,13.73
2023-05-23T06:38:10.689Z,13.73
2023-05-23T06:40:38.157Z,13.38
2023-05-23T06:43:05.657Z,14.10
2023-05-23T06:45:50.827Z,13.60
2023-05-23T06:48:18.147Z,14.27
2023-05-23T06:50:46.646Z,13.98
2023-05-23T06:53:16.691Z,13.57
2023-05-23T06:55:47.262Z,14.18
2023-05-23T06:58:17.536Z,14.52
2023-05-23T07:00:45.081Z,15.32
2023-05-23T07:03:23.860Z,15.20
2023-05-23T07:05:51.882Z,13.77
2023-05-23T07:08:20.428Z,16.33
2023-05-23T07:11:14.306Z,14.80
2023-05-23T07:13:44.404Z,13.52
2023-05-23T07:16:19.789Z,14.52
2023-05-23T07:18:57.123Z,13.07
2023-05-23T07:21:24.453Z,14.75
2023-05-23T07:23:51.713Z,14.95
2023-05-23T07:26:19.649Z,13.80
2023-05-23T07:28:51.933Z,14.02
2023-05-23T07:31:19.486Z,13.52
2023-05-23T07:33:47.222Z,13.70
2023-05-23T07:36:22.567Z,12.85
2023-05-23T07:38:50.690Z,13.55
2023-05-23T07:41:18.407Z,14.20
2023-05-23T07:43:45.791Z,14.27
2023-05-23T07:46:13.093Z,13.32
2023-05-23T07:48:40.484Z,14.20
2023-05-23T07:51:07.845Z,13.40
2023-05-23T07:53:35.281Z,14.57
2023-05-23T07:56:04.144Z,13.50
2023-05-23T07:58:36.936Z,14.50
2023-05-23T08:01:04.266Z,14.43
2023-05-23T08:03:57.570Z,13.80
2023-05-23T08:06:34.911Z,13.23
2023-05-23T08:09:06.904Z,14.38
2023-05-23T08:11:56.992Z,14.32
2023-05-23T08:14:31.751Z,15.05
2023-05-23T08:17:14.541Z,14.57
2023-05-23T08:19:43.993Z,14.55
2023-05-23T08:22:11.307Z,13.15
2023-05-23T08:24:39.009Z,13.48
2023-05-23T08:27:08.027Z,14.25
2023-05-23T08:29:37.390Z,13.80
2023-05-23T08:32:05.543Z,12.98
2023-05-23T08:34:33.850Z,12.27
2023-05-23T08:37:01.354Z,12.52
2023-05-23T08:39:28.850Z,12.25
2023-05-23T08:42:12.273Z,13.48
2023-05-23T08:44:40.824Z,12.68
2023-05-23T08:47:09.128Z,11.63
2023-05-23T08:49:55.348Z,12.20
2023-05-23T08:52:27.424Z,11.90
2023-05-23T08:54:56.830Z,12.73
2023-05-23T08:57:25.266Z,12.88
2023-05-23T08:59:58.212Z,11.35
2023-05-23T09:02:26.066Z,12.07
2023-05-23T09:05:00.957Z,12.23
2023-05-23T09:07:29.616Z,11.10
2023-05-23T09:09:58.599Z,11.45
2023-05-23T09:12:26.136Z,11.68
2023-05-23T09:14:54.403Z,11.13
2023-05-23T09:17:24.542Z,12.35
2023-05-23T09:19:53.221Z,11.32
2023-05-23T09:22:48.352Z,11.17
2023-05-23T09:25:18.009Z,11.00
2023-05-23T09:27:48.272Z,11.60
2023-05-23T09:30:18.784Z,11.10
2023-05-23T09:33:02.937Z,11.25
2023-05-23T09:35:33.171Z,11.73
2023-05-23T09:38:00.728Z,11.77
2023-05-23T09:40:33.355Z,11.00
2023-05-23T09:43:04.322Z,11.40
2023-05-23T09:45:32.729Z,11.85
2023-05-23T09:48:01.823Z,12.00
2023-05-23T09:50:33.795Z,11.27
2023-05-23T09:53:02.461Z,11.50
2023-05-23T09:55:29.876Z,11.85
2023-05-23T09:57:59.266Z,12.43
2023-05-23T10:00:28.715Z,12.27
2023-05-23T10:03:16.536Z,12.65
2023-05-23T10:05:49.044Z,11.63
2023-05-23T10:08:30.187Z,11.38
2023-05-23T10:11:17.538Z,11.05
2023-05-23T10:13:50.204Z,10.73
2023-05-23T10:16:29.066Z,11.35
2023-05-23T10:19:03.630Z,10.52
2023-05-23T10:21:36.352Z,10.68
2023-05-23T10:24:08.539Z,10.50
2023-05-23T10:26:37.084Z,10.05
2023-05-23T10:29:05.394Z,9.90
2023-05-23T10:31:33.039Z,9.85
2023-05-23T10:34:10.608Z,9.82
2023-05-23T10:36:49.362Z,10.23
2023-05-23T10:39:25.547Z,9.80
2023-05-23T10:42:00.361Z,8.93
2023-05-23T10:44:30.878Z,9.35
2023-05-23T10:47:01.680Z,9.25
2023-05-23T10:49:42.448Z,8.93
2023-05-23T10:52:12.070Z,8.10
2023-05-23T10:54:53.214Z,8.63
2023-05-23T10:57:26.972Z,8.77
2023-05-23T10:59:54.502Z,8.10
2023-05-23T11:02:28.958Z,8.52
2023-05-23T11:05:24.658Z,9.20
2023-05-23T11:08:14.066Z,8.52
2023-05-23T11:11:01.477Z,9.23
2023-05-23T11:13:53.523Z,8.50
2023-05-23T11:16:31.916Z,8.05
2023-05-23T11:19:22.075Z,7.82
2023-05-23T11:22:08.345Z,8.18
2023-05-23T11:24:55.171Z,7.38
2023-05-23T11:27:38.144Z,7.80
2023-05-23T11:30:13.953Z,7.45
2023-05-23T11:32:42.678Z,7.32
2023-05-23T11:35:11.610Z,7.45
2023-05-23T11:37:42.616Z,7.38
2023-05-23T11:40:30.371Z,7.57
2023-05-23T11:42:58.321Z,6.65
2023-05-23T11:45:27.248Z,7.40
2023-05-23T11:47:54.681Z,7.05
2023-05-23T11:50:22.104Z,7.35
2023-05-23T11:52:52.061Z,6.97
2023-05-23T11:55:23.626Z,7.40
2023-05-23T11:57:51.956Z,6.90
2023-05-23T12:00:19.840Z,7.05
2023-05-23T12:02:49.315Z,6.65
2023-05-23T12:05:17.030Z,6.22
2023-05-23T12:07:49.665Z,6.03
2023-05-23T12:10:18.428Z,5.80
2023-05-23T12:12:45.865Z,5.97
2023-05-23T12:15:13.641Z,5.63
2023-05-23T12:17:47.393Z,6.45
2023-05-23T12:20:14.927Z,5.65
2023-05-23T12:22:42.831Z,6.05
2023-05-23T12:25:13.551Z,6.10
2023-05-23T12:27:44.217Z,5.93
2023-05-23T12:30:14.697Z,5.90
2023-05-23T12:32:43.701Z,5.50
2023-05-23T12:35:16.624Z,5.90
2023-05-23T12:37:47.467Z,6.18
2023-05-23T12:40:18.865Z,5.60
2023-05-23T12:42:56.959Z,5.75
2023-05-23T12:45:35.158Z,5.97
2023-05-23T12:48:05.239Z,6.00
2023-05-23T12:50:32.668Z,6.10
2023-05-23T12:53:00.200Z,5.50
2023-05-23T12:55:27.479Z,5.85
2023-05-23T12:57:55.191Z,6.07
2023-05-23T13:00:22.594Z,5.82
2023-05-23T13:02:50.552Z,5.85
2023-05-23T13:05:18.175Z,5.75
2023-05-23T13:07:45.577Z,5.70
2023-05-23T13:10:13.024Z,5.45
2023-05-23T13:12:40.392Z,5.50
2023-05-23T13:15:08.378Z,5.53
2023-05-23T13:17:35.949Z,5.78
2023-05-23T13:20:05.338Z,5.63
2023-05-23T13:22:32.714Z,5.47
2023-05-23T13:25:00.049Z,6.13
2023-05-23T13:27:27.406Z,5.38
2023-05-23T13:29:54.934Z,6.18
2023-05-23T13:32:22.300Z,6.50
2023-05-23T13:34:49.562Z,6.32
2023-05-23T13:37:16.860Z,6.22
2023-05-23T13:39:44.334Z,6.03
2023-05-23T13:42:11.889Z,5.70
2023-05-23T13:44:39.121Z,6.50
2023-05-23T13:47:13.743Z,6.10
2023-05-23T13:49:42.089Z,6.00
2023-05-23T13:52:09.439Z,6.30
2023-05-23T13:54:36.807Z,6.07
2023-05-23T13:57:04.716Z,6.22
2023-05-23T13:59:32.005Z,6.10
2023-05-23T14:01:59.329Z,5.68
2023-05-23T14:04:26.678Z,5.95
2023-05-23T14:06:54.095Z,5.60
2023-05-23T14:09:23.190Z,6.10
2023-05-23T14:11:52.475Z,6.30
2023-05-23T14:14:19.829Z,5.95
2023-05-23T14:16:47.317Z,6.22
2023-05-23T14:19:14.832Z,6.10
2023-05-23T14:21:44.630Z,5.78
2023-05-23T14:24:12.422Z,6.13
2023-05-23T14:26:39.708Z,6.07
2023-05-23T14:29:07.003Z,5.82
2023-05-23T14:31:34.377Z,5.70
2023-05-23T14:34:01.643Z,6.05
2023-05-23T14:36:29.221Z,5.93
2023-05-23T14:38:56.522Z,6.50
2023-05-23T14:41:23.832Z,5.78
2023-05-23T14:43:51.266Z,5.55
2023-05-23T14:46:18.649Z,5.53
2023-05-23T14:48:46.254Z,5.25
2023-05-23T14:51:21.411Z,5.15
2023-05-23T14:53:57.909Z,5.07
2023-05-23T14:56:25.280Z,5.65
2023-05-23T14:58:52.548Z,5.40
2023-05-23T15:01:19.996Z,5.43
2023-05-23T15:03:47.252Z,5.45
2023-05-23T15:06:14.589Z,5.20
2023-05-23T15:08:42.445Z,5.35
2023-05-23T15:11:10.438Z,5.28
2023-05-23T15:13:38.224Z,5.43
2023-05-23T15:16:06.396Z,6.15
2023-05-23T15:18:40.858Z,4.97
2023-05-23T15:21:09.283Z,5.75
2023-05-23T15:23:36.821Z,5.60
2023-05-23T15:26:04.354Z,5.18
2023-05-23T15:28:31.617Z,5.70
2023-05-23T15:30:59.680Z,5.18
2023-05-23T15:33:27.218Z,5.25
2023-05-23T15:35:55.071Z,5.00
2023-05-23T15:38:22.395Z,5.30
2023-05-23T15:40:49.697Z,5.38
2023-05-23T15:43:16.968Z,5.05
2023-05-23T15:45:44.378Z,5.63
2023-05-23T15:48:11.851Z,5.28
2023-05-23T15:50:39.386Z,5.30
2023-05-23T15:53:06.881Z,4.97
2023-05-23T15:55:34.316Z,5.20
2023-05-23T15:58:01.683Z,5.50
2023-05-23T16:00:29.055Z,5.15
2023-05-23T16:02:56.378Z,5.20
2023-05-23T16:05:23.873Z,5.40
2023-05-23T16:07:51.518Z,5.28
2023-05-23T16:10:19.974Z,5.15
2023-05-23T16:12:47.231Z,5.00
2023-05-23T16:15:14.503Z,4.80
2023-05-23T16:17:41.783Z,4.97
2023-05-23T16:20:10.868Z,5.03
2023-05-23T16:22:38.879Z,4.70
2023-05-23T16:25:08.006Z,5.03
2023-05-23T16:27:35.563Z,4.95
2023-05-23T16:30:03.542Z,5.07
2023-05-23T16:32:31.142Z,4.72
2023-05-23T16:34:58.457Z,4.90
2023-05-23T16:37:25.741Z,4.88
2023-05-23T16:39:53.014Z,5.07
2023-05-23T16:42:21.187Z,4.88
2023-05-23T16:44:48.607Z,4.95
2023-05-23T16:47:15.904Z,5.18
2023-05-23T16:49:43.140Z,4.70
2023-05-23T16:52:10.536Z,5.10
2023-05-23T16:54:37.830Z,4.70
2023-05-23T16:57:05.722Z,4.30
2023-05-23T16:59:33.100Z,4.65
2023-05-23T17:02:00.377Z,4.07
2023-05-23T17:04:27.682Z,4.10
2023-05-23T17:06:54.908Z,4.38
2023-05-23T17:09:22.944Z,4.68
2023-05-23T17:11:51.101Z,4.30
2023-05-23T17:14:18.473Z,4.22
2023-05-23T17:16:45.758Z,4.45
2023-05-23T17:19:13.226Z,4.32
2023-05-23T17:21:40.561Z,4.20
2023-05-23T17:24:07.876Z,4.43
2023-05-23T17:26:35.206Z,4.95
2023-05-23T17:29:02.692Z,4.40
2023-05-23T17:31:30.790Z,4.28
2023-05-23T17:33:58.604Z,3.92
2023-05-23T17:36:25.893Z,4.22
2023-05-23T17:38:56.356Z,4.60
2023-05-23T17:41:23.879Z,4.45
2023-05-23T17:43:51.151Z,4.32
2023-05-23T17:46:18.602Z,4.53
2023-05-23T17:48:48.031Z,4.80
2023-05-23T17:51:16.169Z,4.47
2023-05-23T17:53:43.733Z,4.10
2023-05-23T17:56:11.440Z,4.15
2023-05-23T17:58:41.636Z,4.25
2023-05-23T18:03:39.135Z,3.83
2023-05-23T18:06:06.898Z,4.13
2023-05-23T18:08:34.285Z,4.18
2023-05-23T18:11:02.660Z,3.80
2023-05-23T18:13:29.875Z,4.68
2023-05-23T18:15:57.307Z,3.65
2023-05-23T18:18:24.798Z,3.63
2023-05-23T18:20:52.267Z,3.97
2023-05-23T18:23:19.671Z,3.50
2023-05-23T18:25:47.049Z,3.90
2023-05-23T18:28:14.420Z,3.67
2023-05-23T18:30:41.854Z,3.70
2023-05-23T18:33:09.366Z,3.90
2023-05-23T18:35:36.818Z,4.32
2023-05-23T18:38:04.212Z,3.50
2023-05-23T18:40:31.415Z,3.40
2023-05-23T18:42:58.763Z,3.20
2023-05-23T18:45:26.014Z,3.58
2023-05-23T18:47:53.446Z,3.90
2023-05-23T18:50:20.825Z,3.83
2023-05-23T18:52:48.110Z,4.13
2023-05-23T18:55:16.541Z,3.60
2023-05-23T18:57:43.789Z,4.03
2023-05-23T19:00:11.564Z,3.70
2023-05-23T19:02:44.223Z,3.92
2023-05-23T19:05:12.663Z,3.78
2023-05-23T19:07:40.182Z,3.75
2023-05-23T19:10:07.840Z,3.85
2023-05-23T19:12:35.214Z,3.88
2023-05-23T19:15:04.483Z,3.63
2023-05-23T19:17:31.801Z,3.63
2023-05-23T19:19:59.161Z,3.95
2023-05-23T19:22:29.650Z,3.50
2023-05-23T19:25:03.806Z,4.25
2023-05-23T19:27:31.068Z,4.40
2023-05-23T19:29:58.394Z,4.30
2023-05-23T19:32:25.825Z,4.05
2023-05-23T19:34:55.095Z,4.35
2023-05-23T19:37:22.639Z,5.32
2023-05-23T19:39:49.926Z,4.20
2023-05-23T19:42:17.202Z,3.95
2023-05-23T19:44:44.885Z,4.40
2023-05-23T19:47:12.285Z,4.30
2023-05-23T19:49:39.541Z,4.20
2023-05-23T19:52:06.849Z,4.50
2023-05-23T19:54:34.172Z,4.65
2023-05-23T19:57:08.929Z,4.80
2023-05-23T19:59:36.233Z,5.00
2023-05-23T20:02:03.513Z,4.53
2023-05-23T20:04:30.840Z,4.78
2023-05-23T20:06:58.308Z,4.88
2023-05-23T20:09:25.652Z,5.18
2023-05-23T20:11:53.048Z,5.18
2023-05-23T20:14:20.350Z,5.82
2023-05-23T20:16:47.611Z,5.90
2023-05-23T20:19:15.003Z,6.10
2023-05-23T20:21:42.271Z,6.22
2023-05-23T20:24:09.578Z,6.75
2023-05-23T20:26:36.845Z,6.60
2023-05-23T20:29:04.576Z,5.68
2023-05-23T20:31:31.892Z,6.43
2023-05-23T20:33:59.331Z,6.35
2023-05-23T20:36:27.378Z,5.45
2023-05-23T20:38:54.640Z,5.72
2023-05-23T20:41:21.905Z,5.60
2023-05-23T20:43:49.310Z,5.75
2023-05-23T20:46:16.623Z,4.95
2023-05-23T20:48:44.003Z,5.57
2023-05-23T20:51:12.151Z,6.00
2023-05-23T20:53:39.478Z,5.32
2023-05-23T20:56:10.233Z,5.78
2023-05-23T20:58:38.033Z,5.70
2023-05-23T21:01:05.395Z,6.28
2023-05-23T21:03:32.865Z,6.72
2023-05-23T21:06:00.200Z,6.40
2023-05-23T21:08:27.445Z,5.47
2023-05-23T21:10:55.201Z,5.65
2023-05-23T21:13:22.593Z,5.72
2023-05-23T21:15:50.116Z,5.43
2023-05-23T21:18:17.871Z,5.45
2023-05-23T21:20:45.574Z,5.45
2023-05-23T21:23:13.032Z,5.32
2023-05-23T21:25:40.694Z,6.30
2023-05-23T21:28:07.940Z,5.60
2023-05-23T21:30:35.250Z,5.97
2023-05-23T21:33:02.584Z,5.93
2023-05-23T21:35:29.861Z,5.25
2023-05-23T21:37:57.945Z,5.70
2023-05-23T21:40:25.885Z,6.18
2023-05-23T21:42:53.165Z,5.80
2023-05-23T21:45:20.731Z,5.80
2023-05-23T21:47:48.102Z,6.35
2023-05-23T21:50:15.405Z,5.55
2023-05-23T21:52:42.721Z,5.85
2023-05-23T21:55:10.235Z,6.03
2023-05-23T21:57:37.545Z,6.18
2023-05-23T22:00:05.292Z,6.03
2023-05-23T22:02:40.331Z,6.10
2023-05-23T22:05:07.922Z,5.93
2023-05-23T22:07:35.156Z,6.80
2023-05-23T22:10:02.563Z,6.15
2023-05-23T22:12:32.299Z,6.70
2023-05-23T22:15:04.729Z,7.30
2023-05-23T22:17:34.135Z,6.63
2023-05-23T22:20:02.524Z,6.20
2023-05-23T22:22:29.800Z,6.65
2023-05-23T22:24:57.053Z,8.00
2023-05-23T22:27:24.323Z,8.10
2023-05-23T22:30:00.466Z,11.43
2023-05-23T22:32:31.289Z,7.50
2023-05-23T22:34:58.625Z,7.00
2023-05-23T22:37:25.953Z,6.60
2023-05-23T22:39:53.321Z,6.38
2023-05-23T22:42:20.649Z,6.68
2023-05-23T22:44:48.297Z,6.70
2023-05-23T22:47:15.709Z,6.78
2023-05-23T22:49:43.685Z,6.60
2023-05-23T22:52:11.090Z,6.15
2023-05-23T22:54:38.298Z,6.68
2023-05-23T22:57:05.730Z,6.63
2023-05-23T22:59:33.034Z,6.47
2023-05-23T23:02:00.370Z,6.63
2023-05-23T23:04:31.119Z,7.07
2023-05-23T23:06:59.402Z,7.35
2023-05-23T23:09:27.109Z,6.47
2023-05-23T23:11:54.894Z,7.00
2023-05-23T23:14:22.373Z,6.88
2023-05-23T23:16:49.904Z,6.65
2023-05-23T23:19:17.891Z,6.80
2023-05-23T23:21:45.595Z,6.82
2023-05-23T23:24:13.712Z,7.03
2023-05-23T23:26:41.128Z,6.97
2023-05-23T23:29:08.460Z,6.90
2023-05-23T23:31:35.832Z,6.60
2023-05-23T23:34:03.256Z,7.25
2023-05-23T23:36:30.610Z,6.70
2023-05-23T23:38:57.986Z,6.85
2023-05-23T23:41:25.294Z,6.22
2023-05-23T23:43:52.597Z,6.60
2023-05-23T23:46:21.041Z,7.30
2023-05-23T23:48:48.397Z,6.93
2023-05-23T23:51:16.013Z,6.68
2023-05-23T23:53:44.987Z,6.28
2023-05-23T23:56:14.335Z,6.80
2023-05-23T23:58:41.741Z,6.85
